sensor_id;sensor_type;location;lat;lon;timestamp;temperature;humidity
77865;DHT22;67061;48.524;9.040;2023-04-02T00:01:23;5.30;99.90
77865;DHT22;67061;48.524;9.040;2023-04-02T00:04:13;5.30;99.90
77865;DHT22;67061;48.524;9.040;2023-04-02T00:06:42;5.30;99.90
77865;DHT22;67061;48.524;9.040;2023-04-02T00:09:34;5.30;99.90
77865;DHT22;67061;48.524;9.040;2023-04-02T00:12:17;5.20;99.90
77865;DHT22;67061;48.524;9.040;2023-04-02T00:14:50;5.10;99.90
77865;DHT22;67061;48.524;9.040;2023-04-02T00:17:19;5.10;99.90
77865;DHT22;67061;48.524;9.040;2023-04-02T00:19:50;5.00;99.90
77865;DHT22;67061;48.524;9.040;2023-04-02T00:22:23;5.00;99.90
77865;DHT22;67061;48.524;9.040;2023-04-02T00:24:53;5.00;99.90
77865;DHT22;67061;48.524;9.040;2023-04-02T00:27:21;5.00;99.90
77865;DHT22;67061;48.524;9.040;2023-04-02T00:29:49;5.00;99.90
77865;DHT22;67061;48.524;9.040;2023-04-02T00:32:20;4.90;99.90
77865;DHT22;67061;48.524;9.040;2023-04-02T00:34:48;4.90;99.90
77865;DHT22;67061;48.524;9.040;2023-04-02T00:37:17;4.90;99.90
77865;DHT22;67061;48.524;9.040;2023-04-02T00:39:52;4.80;99.90
77865;DHT22;67061;48.524;9.040;2023-04-02T00:42:22;4.80;99.90
77865;DHT22;67061;48.524;9.040;2023-04-02T00:44:50;4.90;99.90
77865;DHT22;67061;48.524;9.040;2023-04-02T00:47:21;4.80;99.90
77865;DHT22;67061;48.524;9.040;2023-04-02T00:49:53;4.70;99.90
77865;DHT22;67061;48.524;9.040;2023-04-02T00:52:24;4.70;99.90
77865;DHT22;67061;48.524;9.040;2023-04-02T00:54:59;4.50;99.90
77865;DHT22;67061;48.524;9.040;2023-04-02T00:57:27;4.50;99.90
77865;DHT22;67061;48.524;9.040;2023-04-02T00:59:56;4.50;99.90
77865;DHT22;67061;48.524;9.040;2023-04-02T01:02:27;4.50;99.90
77865;DHT22;67061;48.524;9.040;2023-04-02T01:04:56;4.50;99.90
77865;DHT22;67061;48.524;9.040;2023-04-02T01:07:43;4.50;99.90
77865;DHT22;67061;48.524;9.040;2023-04-02T01:13:12;4.40;99.90
77865;DHT22;67061;48.524;9.040;2023-04-02T01:15:48;4.30;99.90
77865;DHT22;67061;48.524;9.040;2023-04-02T01:18:25;4.30;99.90
77865;DHT22;67061;48.524;9.040;2023-04-02T01:21:07;4.30;99.90
77865;DHT22;67061;48.524;9.040;2023-04-02T01:23:45;4.20;99.90
77865;DHT22;67061;48.524;9.040;2023-04-02T01:26:25;4.20;99.90
77865;DHT22;67061;48.524;9.040;2023-04-02T01:29:02;4.20;99.90
77865;DHT22;67061;48.524;9.040;2023-04-02T01:31:32;4.20;99.90
77865;DHT22;67061;48.524;9.040;2023-04-02T01:34:02;4.30;99.90
77865;DHT22;67061;48.524;9.040;2023-04-02T01:36:36;4.30;99.90
77865;DHT22;67061;48.524;9.040;2023-04-02T01:39:07;4.30;99.90
77865;DHT22;67061;48.524;9.040;2023-04-02T01:41:42;4.30;99.90
77865;DHT22;67061;48.524;9.040;2023-04-02T01:44:21;4.30;99.90
77865;DHT22;67061;48.524;9.040;2023-04-02T01:46:50;4.20;99.90
77865;DHT22;67061;48.524;9.040;2023-04-02T01:49:19;4.20;99.90
77865;DHT22;67061;48.524;9.040;2023-04-02T01:51:51;4.20;99.90
77865;DHT22;67061;48.524;9.040;2023-04-02T01:54:20;4.20;99.90
77865;DHT22;67061;48.524;9.040;2023-04-02T01:56:48;4.20;99.90
77865;DHT22;67061;48.524;9.040;2023-04-02T01:59:18;4.20;99.90
77865;DHT22;67061;48.524;9.040;2023-04-02T02:01:49;4.20;99.90
77865;DHT22;67061;48.524;9.040;2023-04-02T02:04:18;4.20;99.90
77865;DHT22;67061;48.524;9.040;2023-04-02T02:06:45;4.20;99.90
77865;DHT22;67061;48.524;9.040;2023-04-02T02:09:16;4.30;99.90
77865;DHT22;67061;48.524;9.040;2023-04-02T02:11:47;4.20;99.90
77865;DHT22;67061;48.524;9.040;2023-04-02T02:14:18;4.20;99.90
77865;DHT22;67061;48.524;9.040;2023-04-02T02:16:46;4.20;99.90
77865;DHT22;67061;48.524;9.040;2023-04-02T02:19:21;4.20;99.90
77865;DHT22;67061;48.524;9.040;2023-04-02T02:21:51;4.20;99.90
77865;DHT22;67061;48.524;9.040;2023-04-02T02:24:20;4.20;99.90
77865;DHT22;67061;48.524;9.040;2023-04-02T02:26:52;4.20;99.90
77865;DHT22;67061;48.524;9.040;2023-04-02T02:29:39;4.30;99.90
77865;DHT22;67061;48.524;9.040;2023-04-02T02:32:08;4.30;99.90
77865;DHT22;67061;48.524;9.040;2023-04-02T02:34:39;4.30;99.90
77865;DHT22;67061;48.524;9.040;2023-04-02T02:37:13;4.30;99.90
77865;DHT22;67061;48.524;9.040;2023-04-02T02:39:42;4.30;99.90
77865;DHT22;67061;48.524;9.040;2023-04-02T02:42:13;4.30;99.90
77865;DHT22;67061;48.524;9.040;2023-04-02T02:44:45;4.40;99.90
77865;DHT22;67061;48.524;9.040;2023-04-02T02:47:14;4.40;99.90
77865;DHT22;67061;48.524;9.040;2023-04-02T02:49:44;4.40;99.90
77865;DHT22;67061;48.524;9.040;2023-04-02T02:52:14;4.40;99.90
77865;DHT22;67061;48.524;9.040;2023-04-02T02:54:44;4.50;99.90
77865;DHT22;67061;48.524;9.040;2023-04-02T02:57:15;4.50;99.90
77865;DHT22;67061;48.524;9.040;2023-04-02T02:59:45;4.50;99.90
77865;DHT22;67061;48.524;9.040;2023-04-02T03:02:12;4.50;99.90
77865;DHT22;67061;48.524;9.040;2023-04-02T03:04:44;4.50;99.90
77865;DHT22;67061;48.524;9.040;2023-04-02T03:07:12;4.60;99.90
77865;DHT22;67061;48.524;9.040;2023-04-02T03:09:47;4.60;99.90
77865;DHT22;67061;48.524;9.040;2023-04-02T03:12:36;4.70;99.90
77865;DHT22;67061;48.524;9.040;2023-04-02T03:15:07;4.70;99.90
77865;DHT22;67061;48.524;9.040;2023-04-02T03:17:40;4.70;99.90
77865;DHT22;67061;48.524;9.040;2023-04-02T03:20:23;4.70;99.90
77865;DHT22;67061;48.524;9.040;2023-04-02T03:22:56;4.80;99.90
77865;DHT22;67061;48.524;9.040;2023-04-02T03:25:32;4.80;99.90
77865;DHT22;67061;48.524;9.040;2023-04-02T03:28:05;4.90;99.90
77865;DHT22;67061;48.524;9.040;2023-04-02T03:30:44;4.90;99.90
77865;DHT22;67061;48.524;9.040;2023-04-02T03:33:16;4.90;99.90
77865;DHT22;67061;48.524;9.040;2023-04-02T03:35:52;4.90;99.90
77865;DHT22;67061;48.524;9.040;2023-04-02T03:38:24;5.00;99.90
77865;DHT22;67061;48.524;9.040;2023-04-02T03:40:59;5.00;99.90
77865;DHT22;67061;48.524;9.040;2023-04-02T03:43:30;5.00;99.90
77865;DHT22;67061;48.524;9.040;2023-04-02T03:46:05;5.00;99.90
77865;DHT22;67061;48.524;9.040;2023-04-02T03:48:39;5.00;99.90
77865;DHT22;67061;48.524;9.040;2023-04-02T03:51:12;5.00;99.90
77865;DHT22;67061;48.524;9.040;2023-04-02T03:53:42;5.10;99.90
77865;DHT22;67061;48.524;9.040;2023-04-02T03:56:21;5.10;99.90
77865;DHT22;67061;48.524;9.040;2023-04-02T03:58:54;5.10;99.90
77865;DHT22;67061;48.524;9.040;2023-04-02T04:01:31;5.10;99.90
77865;DHT22;67061;48.524;9.040;2023-04-02T04:04:04;5.10;99.90
77865;DHT22;67061;48.524;9.040;2023-04-02T04:06:33;5.20;99.90
77865;DHT22;67061;48.524;9.040;2023-04-02T04:09:07;5.10;99.90
77865;DHT22;67061;48.524;9.040;2023-04-02T04:11:36;5.20;99.90
77865;DHT22;67061;48.524;9.040;2023-04-02T04:14:08;5.30;99.90
77865;DHT22;67061;48.524;9.040;2023-04-02T04:16:44;5.30;99.90
77865;DHT22;67061;48.524;9.040;2023-04-02T04:19:16;5.30;99.90
77865;DHT22;67061;48.524;9.040;2023-04-02T04:21:45;5.30;99.90
77865;DHT22;67061;48.524;9.040;2023-04-02T04:24:17;5.30;99.90
77865;DHT22;67061;48.524;9.040;2023-04-02T04:26:51;5.30;99.90
77865;DHT22;67061;48.524;9.040;2023-04-02T04:29:32;5.30;99.90
77865;DHT22;67061;48.524;9.040;2023-04-02T04:32:16;5.30;99.90
77865;DHT22;67061;48.524;9.040;2023-04-02T04:34:56;5.30;99.90
77865;DHT22;67061;48.524;9.040;2023-04-02T04:37:29;5.30;99.90
77865;DHT22;67061;48.524;9.040;2023-04-02T04:40:03;5.30;99.90
77865;DHT22;67061;48.524;9.040;2023-04-02T04:42:33;5.30;99.90
77865;DHT22;67061;48.524;9.040;2023-04-02T04:45:07;5.30;99.90
77865;DHT22;67061;48.524;9.040;2023-04-02T04:47:39;5.30;99.90
77865;DHT22;67061;48.524;9.040;2023-04-02T04:50:11;5.30;99.90
77865;DHT22;67061;48.524;9.040;2023-04-02T04:52:40;5.30;99.90
77865;DHT22;67061;48.524;9.040;2023-04-02T04:55:25;5.30;99.90
77865;DHT22;67061;48.524;9.040;2023-04-02T04:57:55;5.30;99.90
77865;DHT22;67061;48.524;9.040;2023-04-02T05:00:38;5.30;99.90
77865;DHT22;67061;48.524;9.040;2023-04-02T05:03:14;5.30;99.90
77865;DHT22;67061;48.524;9.040;2023-04-02T05:05:43;5.30;99.90
77865;DHT22;67061;48.524;9.040;2023-04-02T05:08:13;5.30;99.90
77865;DHT22;67061;48.524;9.040;2023-04-02T05:10:47;5.30;99.90
77865;DHT22;67061;48.524;9.040;2023-04-02T05:13:19;5.30;99.90
77865;DHT22;67061;48.524;9.040;2023-04-02T05:15:53;5.30;99.90
77865;DHT22;67061;48.524;9.040;2023-04-02T05:18:31;5.30;99.90
77865;DHT22;67061;48.524;9.040;2023-04-02T05:21:04;5.30;99.90
77865;DHT22;67061;48.524;9.040;2023-04-02T05:23:35;5.40;99.90
77865;DHT22;67061;48.524;9.040;2023-04-02T05:26:07;5.40;99.90
77865;DHT22;67061;48.524;9.040;2023-04-02T05:28:42;5.30;99.90
77865;DHT22;67061;48.524;9.040;2023-04-02T05:31:14;5.30;99.90
77865;DHT22;67061;48.524;9.040;2023-04-02T05:33:56;5.30;99.90
77865;DHT22;67061;48.524;9.040;2023-04-02T05:36:25;5.50;99.90
77865;DHT22;67061;48.524;9.040;2023-04-02T05:38:54;5.50;99.90
77865;DHT22;67061;48.524;9.040;2023-04-02T05:41:25;5.50;99.90
77865;DHT22;67061;48.524;9.040;2023-04-02T05:44:01;5.50;99.90
77865;DHT22;67061;48.524;9.040;2023-04-02T05:46:34;5.50;99.90
77865;DHT22;67061;48.524;9.040;2023-04-02T05:49:06;5.50;99.90
77865;DHT22;67061;48.524;9.040;2023-04-02T05:51:38;5.50;99.90
77865;DHT22;67061;48.524;9.040;2023-04-02T05:54:24;5.50;99.90
77865;DHT22;67061;48.524;9.040;2023-04-02T05:56:56;5.50;99.90
77865;DHT22;67061;48.524;9.040;2023-04-02T05:59:28;5.50;99.90
77865;DHT22;67061;48.524;9.040;2023-04-02T06:02:00;5.60;99.90
77865;DHT22;67061;48.524;9.040;2023-04-02T06:04:35;5.60;99.90
77865;DHT22;67061;48.524;9.040;2023-04-02T06:07:10;5.70;99.90
77865;DHT22;67061;48.524;9.040;2023-04-02T06:09:46;5.80;99.90
77865;DHT22;67061;48.524;9.040;2023-04-02T06:12:24;5.80;99.90
77865;DHT22;67061;48.524;9.040;2023-04-02T06:14:52;5.90;99.90
77865;DHT22;67061;48.524;9.040;2023-04-02T06:17:20;6.00;99.90
77865;DHT22;67061;48.524;9.040;2023-04-02T06:19:48;6.00;99.90
77865;DHT22;67061;48.524;9.040;2023-04-02T06:22:23;6.10;99.90
77865;DHT22;67061;48.524;9.040;2023-04-02T06:24:55;6.10;99.90
77865;DHT22;67061;48.524;9.040;2023-04-02T06:27:25;6.20;99.90
77865;DHT22;67061;48.524;9.040;2023-04-02T06:29:56;6.30;99.90
77865;DHT22;67061;48.524;9.040;2023-04-02T06:32:25;6.30;99.90
77865;DHT22;67061;48.524;9.040;2023-04-02T06:34:54;6.40;99.90
77865;DHT22;67061;48.524;9.040;2023-04-02T06:37:25;6.50;99.90
77865;DHT22;67061;48.524;9.040;2023-04-02T06:39:54;6.50;99.90
77865;DHT22;67061;48.524;9.040;2023-04-02T06:42:24;6.60;99.90
77865;DHT22;67061;48.524;9.040;2023-04-02T06:44:52;6.70;99.90
77865;DHT22;67061;48.524;9.040;2023-04-02T06:47:25;6.70;99.90
77865;DHT22;67061;48.524;9.040;2023-04-02T06:49:59;6.80;99.90
77865;DHT22;67061;48.524;9.040;2023-04-02T06:52:33;6.90;99.90
77865;DHT22;67061;48.524;9.040;2023-04-02T06:55:06;7.00;99.90
77865;DHT22;67061;48.524;9.040;2023-04-02T06:57:38;7.00;99.90
77865;DHT22;67061;48.524;9.040;2023-04-02T07:00:08;7.00;99.90
77865;DHT22;67061;48.524;9.040;2023-04-02T07:02:43;7.10;99.40
77865;DHT22;67061;48.524;9.040;2023-04-02T07:05:12;7.20;99.20
77865;DHT22;67061;48.524;9.040;2023-04-02T07:07:39;7.20;99.40
77865;DHT22;67061;48.524;9.040;2023-04-02T07:10:07;7.30;98.80
77865;DHT22;67061;48.524;9.040;2023-04-02T07:12:34;7.40;98.70
77865;DHT22;67061;48.524;9.040;2023-04-02T07:15:01;7.40;98.30
77865;DHT22;67061;48.524;9.040;2023-04-02T07:17:28;7.50;97.50
77865;DHT22;67061;48.524;9.040;2023-04-02T07:19:55;7.50;97.40
77865;DHT22;67061;48.524;9.040;2023-04-02T07:22:24;7.50;97.30
77865;DHT22;67061;48.524;9.040;2023-04-02T07:24:51;7.60;97.30
77865;DHT22;67061;48.524;9.040;2023-04-02T07:27:18;7.70;96.20
77865;DHT22;67061;48.524;9.040;2023-04-02T07:29:45;7.70;95.50
77865;DHT22;67061;48.524;9.040;2023-04-02T07:32:12;7.80;96.20
77865;DHT22;67061;48.524;9.040;2023-04-02T09:20:14;10.00;81.50
77865;DHT22;67061;48.524;9.040;2023-04-02T09:22:46;9.70;81.70
77865;DHT22;67061;48.524;9.040;2023-04-02T09:25:17;9.70;81.90
77865;DHT22;67061;48.524;9.040;2023-04-02T09:27:47;9.70;80.90
77865;DHT22;67061;48.524;9.040;2023-04-02T09:30:26;9.80;81.80
77865;DHT22;67061;48.524;9.040;2023-04-02T09:32:56;9.90;80.30
77865;DHT22;67061;48.524;9.040;2023-04-02T09:35:28;9.90;81.20
77865;DHT22;67061;48.524;9.040;2023-04-02T09:38:16;10.00;81.80
77865;DHT22;67061;48.524;9.040;2023-04-02T09:40:47;10.00;80.00
77865;DHT22;67061;48.524;9.040;2023-04-02T09:43:16;10.00;80.20
77865;DHT22;67061;48.524;9.040;2023-04-02T09:45:44;10.00;80.80
77865;DHT22;67061;48.524;9.040;2023-04-02T09:48:23;10.10;81.40
77865;DHT22;67061;48.524;9.040;2023-04-02T09:51:12;10.10;80.50
77865;DHT22;67061;48.524;9.040;2023-04-02T09:53:41;10.10;79.80
77865;DHT22;67061;48.524;9.040;2023-04-02T09:56:15;10.00;79.00
77865;DHT22;67061;48.524;9.040;2023-04-02T09:58:43;10.00;80.70
77865;DHT22;67061;48.524;9.040;2023-04-02T10:01:22;10.10;80.80
77865;DHT22;67061;48.524;9.040;2023-04-02T10:03:50;10.40;78.90
77865;DHT22;67061;48.524;9.040;2023-04-02T10:06:18;10.50;79.30
77865;DHT22;67061;48.524;9.040;2023-04-02T10:08:46;10.60;77.40
77865;DHT22;67061;48.524;9.040;2023-04-02T10:11:16;10.60;76.90
77865;DHT22;67061;48.524;9.040;2023-04-02T10:13:51;10.70;78.40
77865;DHT22;67061;48.524;9.040;2023-04-02T10:16:22;10.80;77.70
77865;DHT22;67061;48.524;9.040;2023-04-02T10:18:53;11.10;78.80
77865;DHT22;67061;48.524;9.040;2023-04-02T10:21:25;11.10;76.10
77865;DHT22;67061;48.524;9.040;2023-04-02T10:23:52;11.10;77.70
77865;DHT22;67061;48.524;9.040;2023-04-02T10:26:36;11.20;75.40
77865;DHT22;67061;48.524;9.040;2023-04-02T10:29:37;10.90;75.20
77865;DHT22;67061;48.524;9.040;2023-04-02T10:32:10;10.90;75.70
77865;DHT22;67061;48.524;9.040;2023-04-02T10:34:43;10.90;78.40
77865;DHT22;67061;48.524;9.040;2023-04-02T10:37:39;11.00;76.70
77865;DHT22;67061;48.524;9.040;2023-04-02T10:40:13;11.00;76.20
77865;DHT22;67061;48.524;9.040;2023-04-02T10:42:50;11.00;76.70
77865;DHT22;67061;48.524;9.040;2023-04-02T10:45:32;11.10;74.60
77865;DHT22;67061;48.524;9.040;2023-04-02T10:48:10;11.00;76.20
77865;DHT22;67061;48.524;9.040;2023-04-02T10:50:47;11.10;75.70
77865;DHT22;67061;48.524;9.040;2023-04-02T10:53:17;11.00;74.00
77865;DHT22;67061;48.524;9.040;2023-04-02T10:55:48;10.90;74.70
77865;DHT22;67061;48.524;9.040;2023-04-02T10:58:22;11.00;74.20
77865;DHT22;67061;48.524;9.040;2023-04-02T11:00:52;10.90;75.30
77865;DHT22;67061;48.524;9.040;2023-04-02T11:03:29;11.10;75.50
77865;DHT22;67061;48.524;9.040;2023-04-02T11:05:57;11.10;74.00
77865;DHT22;67061;48.524;9.040;2023-04-02T11:08:31;11.10;73.30
77865;DHT22;67061;48.524;9.040;2023-04-02T11:11:07;11.00;74.80
77865;DHT22;67061;48.524;9.040;2023-04-02T11:13:44;11.00;74.60
77865;DHT22;67061;48.524;9.040;2023-04-02T11:16:12;11.10;74.70
77865;DHT22;67061;48.524;9.040;2023-04-02T11:18:41;11.20;73.70
77865;DHT22;67061;48.524;9.040;2023-04-02T11:23:56;11.40;73.50
77865;DHT22;67061;48.524;9.040;2023-04-02T11:26:35;11.50;72.80
77865;DHT22;67061;48.524;9.040;2023-04-02T11:32:29;11.50;73.40
77865;DHT22;67061;48.524;9.040;2023-04-02T11:35:37;11.70;71.80
77865;DHT22;67061;48.524;9.040;2023-04-02T11:41:06;11.70;72.20
77865;DHT22;67061;48.524;9.040;2023-04-02T11:43:50;12.00;73.00
77865;DHT22;67061;48.524;9.040;2023-04-02T11:46:44;12.30;71.90
77865;DHT22;67061;48.524;9.040;2023-04-02T11:49:37;12.70;69.70
77865;DHT22;67061;48.524;9.040;2023-04-02T11:55:25;12.70;68.10
77865;DHT22;67061;48.524;9.040;2023-04-02T11:58:26;12.50;67.70
77865;DHT22;67061;48.524;9.040;2023-04-02T12:04:33;12.90;68.90
77865;DHT22;67061;48.524;9.040;2023-04-02T12:07:22;13.10;66.80
77865;DHT22;67061;48.524;9.040;2023-04-02T12:09:53;12.90;66.20
77865;DHT22;67061;48.524;9.040;2023-04-02T12:12:26;12.70;68.50
77865;DHT22;67061;48.524;9.040;2023-04-02T12:14:55;12.50;69.10
77865;DHT22;67061;48.524;9.040;2023-04-02T12:17:34;12.70;68.70
77865;DHT22;67061;48.524;9.040;2023-04-02T12:20:12;12.60;68.00
77865;DHT22;67061;48.524;9.040;2023-04-02T12:22:47;12.50;69.40
77865;DHT22;67061;48.524;9.040;2023-04-02T12:25:22;12.40;70.20
77865;DHT22;67061;48.524;9.040;2023-04-02T12:28:05;12.20;71.40
77865;DHT22;67061;48.524;9.040;2023-04-02T12:30:35;12.00;71.40
77865;DHT22;67061;48.524;9.040;2023-04-02T12:33:23;11.90;71.50
77865;DHT22;67061;48.524;9.040;2023-04-02T12:35:55;11.90;71.50
77865;DHT22;67061;48.524;9.040;2023-04-02T12:38:25;11.70;71.10
77865;DHT22;67061;48.524;9.040;2023-04-02T12:40:53;11.40;71.60
77865;DHT22;67061;48.524;9.040;2023-04-02T12:43:26;11.40;73.00
77865;DHT22;67061;48.524;9.040;2023-04-02T12:45:57;11.40;73.90
77865;DHT22;67061;48.524;9.040;2023-04-02T12:48:25;11.40;72.80
77865;DHT22;67061;48.524;9.040;2023-04-02T12:50:53;11.40;73.80
77865;DHT22;67061;48.524;9.040;2023-04-02T12:53:21;11.40;73.90
77865;DHT22;67061;48.524;9.040;2023-04-02T12:55:50;11.30;74.10
77865;DHT22;67061;48.524;9.040;2023-04-02T12:58:28;11.30;74.10
77865;DHT22;67061;48.524;9.040;2023-04-02T13:01:18;11.10;74.00
77865;DHT22;67061;48.524;9.040;2023-04-02T13:03:59;11.10;75.50
77865;DHT22;67061;48.524;9.040;2023-04-02T13:06:26;11.10;75.50
77865;DHT22;67061;48.524;9.040;2023-04-02T13:08:55;11.10;75.70
77865;DHT22;67061;48.524;9.040;2023-04-02T13:11:32;11.10;75.00
77865;DHT22;67061;48.524;9.040;2023-04-02T13:14:00;11.30;74.10
77865;DHT22;67061;48.524;9.040;2023-04-02T13:16:33;11.30;73.60
77865;DHT22;67061;48.524;9.040;2023-04-02T13:19:20;11.40;73.90
77865;DHT22;67061;48.524;9.040;2023-04-02T13:21:47;11.50;73.60
77865;DHT22;67061;48.524;9.040;2023-04-02T13:24:18;11.60;73.30
77865;DHT22;67061;48.524;9.040;2023-04-02T13:26:46;11.60;71.60
77865;DHT22;67061;48.524;9.040;2023-04-02T13:29:21;11.70;72.00
77865;DHT22;67061;48.524;9.040;2023-04-02T13:31:50;11.90;72.50
77865;DHT22;67061;48.524;9.040;2023-04-02T13:34:17;12.10;72.90
77865;DHT22;67061;48.524;9.040;2023-04-02T13:36:44;12.50;70.70
77865;DHT22;67061;48.524;9.040;2023-04-02T13:39:11;12.60;67.60
77865;DHT22;67061;48.524;9.040;2023-04-02T13:41:40;12.50;68.10
77865;DHT22;67061;48.524;9.040;2023-04-02T13:44:18;12.60;69.70
77865;DHT22;67061;48.524;9.040;2023-04-02T13:46:45;12.80;68.20
77865;DHT22;67061;48.524;9.040;2023-04-02T13:49:13;13.00;68.50
77865;DHT22;67061;48.524;9.040;2023-04-02T13:51:42;13.10;67.20
77865;DHT22;67061;48.524;9.040;2023-04-02T13:54:15;13.10;66.40
77865;DHT22;67061;48.524;9.040;2023-04-02T13:56:43;12.80;66.60
77865;DHT22;67061;48.524;9.040;2023-04-02T13:59:11;12.80;67.10
77865;DHT22;67061;48.524;9.040;2023-04-02T14:01:39;12.50;68.50
77865;DHT22;67061;48.524;9.040;2023-04-02T14:04:07;12.50;67.80
77865;DHT22;67061;48.524;9.040;2023-04-02T14:09:45;12.50;67.20
77865;DHT22;67061;48.524;9.040;2023-04-02T14:12:25;12.50;66.90
77865;DHT22;67061;48.524;9.040;2023-04-02T14:15:14;12.40;67.80
77865;DHT22;67061;48.524;9.040;2023-04-02T14:17:51;12.20;66.90
77865;DHT22;67061;48.524;9.040;2023-04-02T14:20:31;12.10;68.00
77865;DHT22;67061;48.524;9.040;2023-04-02T14:23:12;11.90;69.00
77865;DHT22;67061;48.524;9.040;2023-04-02T14:25:46;11.90;69.60
77865;DHT22;67061;48.524;9.040;2023-04-02T14:28:18;11.90;69.10
77865;DHT22;67061;48.524;9.040;2023-04-02T14:30:55;11.70;69.50
77865;DHT22;67061;48.524;9.040;2023-04-02T14:33:33;11.70;70.20
77865;DHT22;67061;48.524;9.040;2023-04-02T14:36:08;11.70;69.40
77865;DHT22;67061;48.524;9.040;2023-04-02T14:38:45;11.70;70.20
77865;DHT22;67061;48.524;9.040;2023-04-02T14:41:20;11.70;70.30
77865;DHT22;67061;48.524;9.040;2023-04-02T14:43:51;11.70;70.40
77865;DHT22;67061;48.524;9.040;2023-04-02T14:46:24;11.70;70.10
77865;DHT22;67061;48.524;9.040;2023-04-02T14:48:54;11.70;69.60
77865;DHT22;67061;48.524;9.040;2023-04-02T14:51:28;11.50;70.50
77865;DHT22;67061;48.524;9.040;2023-04-02T14:54:01;11.50;70.20
77865;DHT22;67061;48.524;9.040;2023-04-02T14:56:37;11.50;71.30
77865;DHT22;67061;48.524;9.040;2023-04-02T14:59:18;11.50;70.70
77865;DHT22;67061;48.524;9.040;2023-04-02T15:01:48;11.50;71.50
77865;DHT22;67061;48.524;9.040;2023-04-02T15:04:20;11.50;72.80
77865;DHT22;67061;48.524;9.040;2023-04-02T15:06:50;11.20;74.40
77865;DHT22;67061;48.524;9.040;2023-04-02T15:09:26;11.20;75.50
77865;DHT22;67061;48.524;9.040;2023-04-02T15:11:55;11.20;76.80
77865;DHT22;67061;48.524;9.040;2023-04-02T15:14:27;11.20;76.60
77865;DHT22;67061;48.524;9.040;2023-04-02T15:16:57;11.10;76.90
77865;DHT22;67061;48.524;9.040;2023-04-02T15:19:24;11.10;77.20
77865;DHT22;67061;48.524;9.040;2023-04-02T15:22:03;10.80;77.90
77865;DHT22;67061;48.524;9.040;2023-04-02T15:24:40;10.60;78.80
77865;DHT22;67061;48.524;9.040;2023-04-02T15:27:21;10.40;79.80
77865;DHT22;67061;48.524;9.040;2023-04-02T15:29:55;10.30;80.90
77865;DHT22;67061;48.524;9.040;2023-04-02T15:32:29;10.30;81.50
77865;DHT22;67061;48.524;9.040;2023-04-02T15:35:07;10.30;81.80
77865;DHT22;67061;48.524;9.040;2023-04-02T15:37:44;10.20;82.60
77865;DHT22;67061;48.524;9.040;2023-04-02T15:40:32;10.10;83.10
77865;DHT22;67061;48.524;9.040;2023-04-02T15:43:09;10.00;83.70
77865;DHT22;67061;48.524;9.040;2023-04-02T15:45:49;9.80;84.70
77865;DHT22;67061;48.524;9.040;2023-04-02T15:48:38;9.90;85.10
77865;DHT22;67061;48.524;9.040;2023-04-02T15:51:18;10.00;85.20
77865;DHT22;67061;48.524;9.040;2023-04-02T15:53:53;10.00;85.40
77865;DHT22;67061;48.524;9.040;2023-04-02T15:56:33;10.00;85.20
77865;DHT22;67061;48.524;9.040;2023-04-02T16:05:01;9.60;86.00
77865;DHT22;67061;48.524;9.040;2023-04-02T16:07:57;9.50;85.70
77865;DHT22;67061;48.524;9.040;2023-04-02T16:10:29;9.50;85.90
77865;DHT22;67061;48.524;9.040;2023-04-02T16:12:58;9.50;86.20
77865;DHT22;67061;48.524;9.040;2023-04-02T16:15:29;9.50;86.20
77865;DHT22;67061;48.524;9.040;2023-04-02T16:18:00;9.60;85.80
77865;DHT22;67061;48.524;9.040;2023-04-02T16:20:30;9.40;86.00
77865;DHT22;67061;48.524;9.040;2023-04-02T16:23:01;9.30;87.00
77865;DHT22;67061;48.524;9.040;2023-04-02T16:25:33;9.40;86.50
77865;DHT22;67061;48.524;9.040;2023-04-02T16:28:12;9.30;87.00
77865;DHT22;67061;48.524;9.040;2023-04-02T16:30:47;9.30;87.50
77865;DHT22;67061;48.524;9.040;2023-04-02T16:33:31;9.10;87.40
77865;DHT22;67061;48.524;9.040;2023-04-02T16:36:09;9.00;87.90
77865;DHT22;67061;48.524;9.040;2023-04-02T16:38:48;8.90;88.70
77865;DHT22;67061;48.524;9.040;2023-04-02T16:41:23;8.90;89.70
77865;DHT22;67061;48.524;9.040;2023-04-02T16:43:58;8.80;90.80
77865;DHT22;67061;48.524;9.040;2023-04-02T16:46:34;8.60;91.80
77865;DHT22;67061;48.524;9.040;2023-04-02T16:49:11;8.50;91.80
77865;DHT22;67061;48.524;9.040;2023-04-02T16:51:46;8.40;92.20
77865;DHT22;67061;48.524;9.040;2023-04-02T16:54:19;8.40;92.90
77865;DHT22;67061;48.524;9.040;2023-04-02T16:56:57;8.40;91.90
77865;DHT22;67061;48.524;9.040;2023-04-02T16:59:34;8.30;91.20
77865;DHT22;67061;48.524;9.040;2023-04-02T17:02:18;8.30;91.70
77865;DHT22;67061;48.524;9.040;2023-04-02T17:05:04;8.30;91.70
77865;DHT22;67061;48.524;9.040;2023-04-02T17:07:41;8.30;91.90
77865;DHT22;67061;48.524;9.040;2023-04-02T17:10:25;8.10;92.40
77865;DHT22;67061;48.524;9.040;2023-04-02T17:13:01;8.00;93.00
77865;DHT22;67061;48.524;9.040;2023-04-02T17:15:35;8.00;93.90
77865;DHT22;67061;48.524;9.040;2023-04-02T17:18:09;8.00;94.90
77865;DHT22;67061;48.524;9.040;2023-04-02T17:20:39;7.80;93.20
77865;DHT22;67061;48.524;9.040;2023-04-02T17:23:07;7.60;94.00
77865;DHT22;67061;48.524;9.040;2023-04-02T17:25:43;7.60;94.20
77865;DHT22;67061;48.524;9.040;2023-04-02T17:28:14;7.50;93.70
77865;DHT22;67061;48.524;9.040;2023-04-02T17:30:53;7.50;95.10
77865;DHT22;67061;48.524;9.040;2023-04-02T17:33:21;7.50;95.10
77865;DHT22;67061;48.524;9.040;2023-04-02T17:36:03;7.50;95.50
77865;DHT22;67061;48.524;9.040;2023-04-02T17:38:34;7.50;95.20
77865;DHT22;67061;48.524;9.040;2023-04-02T17:41:09;7.40;95.10
77865;DHT22;67061;48.524;9.040;2023-04-02T17:43:44;7.40;95.70
77865;DHT22;67061;48.524;9.040;2023-04-02T17:46:20;7.30;95.50
77865;DHT22;67061;48.524;9.040;2023-04-02T17:48:54;7.30;95.70
77865;DHT22;67061;48.524;9.040;2023-04-02T17:51:32;7.20;95.00
77865;DHT22;67061;48.524;9.040;2023-04-02T17:54:09;7.20;96.60
77865;DHT22;67061;48.524;9.040;2023-04-02T17:56:53;7.20;97.00
77865;DHT22;67061;48.524;9.040;2023-04-02T17:59:43;7.20;96.50
77865;DHT22;67061;48.524;9.040;2023-04-02T18:02:29;7.20;95.80
77865;DHT22;67061;48.524;9.040;2023-04-02T18:05:08;7.20;95.50
77865;DHT22;67061;48.524;9.040;2023-04-02T18:07:47;7.20;94.90
77865;DHT22;67061;48.524;9.040;2023-04-02T18:10:21;7.20;95.00
77865;DHT22;67061;48.524;9.040;2023-04-02T18:12:54;7.20;95.20
77865;DHT22;67061;48.524;9.040;2023-04-02T18:15:41;7.10;94.60
77865;DHT22;67061;48.524;9.040;2023-04-02T18:18:22;7.00;93.40
77865;DHT22;67061;48.524;9.040;2023-04-02T18:20:56;7.00;93.60
77865;DHT22;67061;48.524;9.040;2023-04-02T18:23:36;7.00;93.50
77865;DHT22;67061;48.524;9.040;2023-04-02T18:26:12;7.00;93.20
77865;DHT22;67061;48.524;9.040;2023-04-02T18:28:46;6.90;93.20
77865;DHT22;67061;48.524;9.040;2023-04-02T18:31:21;6.90;92.10
77865;DHT22;67061;48.524;9.040;2023-04-02T18:34:22;6.80;93.40
77865;DHT22;67061;48.524;9.040;2023-04-02T18:37:03;6.80;92.50